createdAt,value
2018-06-07T00:10:41.000Z,25.7
2018-06-07T00:20:40.000Z,25.69
2018-06-07T00:30:40.000Z,25.64
2018-06-07T00:40:40.000Z,25.6
2018-06-07T00:50:40.000Z,25.58
2018-06-07T01:00:40.000Z,25.52
2018-06-07T01:10:40.000Z,25.49
2018-06-07T01:20:40.000Z,25.46
2018-06-07T01:30:40.000Z,25.42
2018-06-07T01:40:40.000Z,25.38
2018-06-07T01:50:40.000Z,25.35
2018-06-07T02:00:40.000Z,25.32
2018-06-07T02:10:40.000Z,25.3
2018-06-07T02:20:40.000Z,25.26
2018-06-07T02:30:40.000Z,25.23
2018-06-07T02:40:40.000Z,25.19
2018-06-07T02:50:40.000Z,25.17
2018-06-07T03:00:40.000Z,25.14
2018-06-07T03:10:40.000Z,25.12
2018-06-07T03:20:40.000Z,25.09
2018-06-07T03:30:40.000Z,25.06
2018-06-07T03:40:40.000Z,25.05
2018-06-07T03:50:40.000Z,25.03
2018-06-07T04:00:40.000Z,25.03
2018-06-07T04:10:40.000Z,25.01
2018-06-07T04:20:40.000Z,24.99
2018-06-07T04:30:40.000Z,24.99
2018-06-07T04:40:40.000Z,25.02
2018-06-07T04:50:40.000Z,25.06
2018-06-07T05:00:40.000Z,25.08
2018-06-07T05:10:40.000Z,25.14
2018-06-07T05:20:40.000Z,25.21
2018-06-07T05:30:40.000Z,25.18
2018-06-07T05:40:40.000Z,25.26
2018-06-07T05:50:40.000Z,25.28
2018-06-07T06:00:41.000Z,25.35
2018-06-07T06:10:41.000Z,25.42
2018-06-07T06:20:41.000Z,25.49
2018-06-07T06:30:41.000Z,25.53
2018-06-07T06:40:41.000Z,25.62
2018-06-07T06:50:41.000Z,25.67
2018-06-07T07:00:41.000Z,25.75
2018-06-07T07:10:41.000Z,25.87
2018-06-07T07:20:41.000Z,25.96
2018-06-07T07:40:41.000Z,26.11
2018-06-07T07:50:41.000Z,26.24
2018-06-07T08:00:41.000Z,26.27
2018-06-07T08:10:41.000Z,26.45
2018-06-07T08:20:41.000Z,26.58
2018-06-07T08:30:41.000Z,26.72
2018-06-07T08:40:41.000Z,26.84
2018-06-07T08:50:41.000Z,26.81
2018-06-07T09:00:41.000Z,26.97
2018-06-07T09:10:41.000Z,27.13
2018-06-07T09:20:41.000Z,27.21
2018-06-07T09:30:41.000Z,27.32
2018-06-07T09:40:41.000Z,27.48
2018-06-07T09:50:41.000Z,27.53
2018-06-07T10:00:41.000Z,27.65
2018-06-07T10:10:41.000Z,27.69
2018-06-07T10:20:41.000Z,27.89
2018-06-07T10:30:41.000Z,27.94
2018-06-07T10:40:41.000Z,28.04
2018-06-07T10:50:41.000Z,28.13
2018-06-07T11:00:41.000Z,28.28
2018-06-07T11:10:41.000Z,28.4
2018-06-07T11:20:41.000Z,28.47
2018-06-07T11:30:41.000Z,28.53
2018-06-07T11:40:41.000Z,28.47
2018-06-07T11:50:41.000Z,28.65
2018-06-07T12:00:41.000Z,28.53
2018-06-07T12:10:42.000Z,28.83
2018-06-07T12:20:41.000Z,28.65
2018-06-07T12:30:41.000Z,28.91
2018-06-07T12:40:41.000Z,29
2018-06-07T12:50:41.000Z,28.75
2018-06-07T13:00:41.000Z,28.84
2018-06-07T13:10:41.000Z,29.13
2018-06-07T13:20:41.000Z,28.97
2018-06-07T13:50:42.000Z,28.94
2018-06-07T14:10:42.000Z,28.98
2018-06-07T14:20:42.000Z,28.89
2018-06-07T14:30:42.000Z,28.78
2018-06-07T14:40:42.000Z,28.88
2018-06-07T14:50:42.000Z,28.91
2018-06-07T15:00:42.000Z,28.88
2018-06-07T15:30:42.000Z,29.05
2018-06-07T15:40:42.000Z,29.08
2018-06-07T15:50:42.000Z,29.13
2018-06-07T16:00:42.000Z,29.07
2018-06-07T16:10:42.000Z,28.86
2018-06-07T16:20:42.000Z,28.76
2018-06-07T16:30:44.000Z,28.69
2018-06-07T16:40:42.000Z,28.63
2018-06-07T16:50:43.000Z,28.49
2018-06-07T17:00:42.000Z,28.44
2018-06-07T17:10:42.000Z,28.4
2018-06-07T17:20:44.000Z,28.35
2018-06-07T17:30:42.000Z,28.33
2018-06-07T17:40:42.000Z,28.29
2018-06-07T17:50:42.000Z,28.26
2018-06-07T18:00:44.000Z,28.25
2018-06-07T18:10:42.000Z,28.09
2018-06-07T18:20:45.000Z,28.09
2018-06-07T18:30:45.000Z,28.03
2018-06-07T18:40:43.000Z,27.99
2018-06-07T18:50:42.000Z,27.95
2018-06-07T19:00:42.000Z,27.92
2018-06-07T19:10:43.000Z,27.01
2018-06-07T19:20:42.000Z,27.06
2018-06-07T19:30:42.000Z,26.84
2018-06-07T19:40:42.000Z,26.58
2018-06-07T19:50:43.000Z,26.69
2018-06-07T20:00:42.000Z,26.95
2018-06-07T20:10:42.000Z,26.95
2018-06-07T20:20:42.000Z,26.86
2018-06-07T20:40:42.000Z,26.96
2018-06-07T20:50:42.000Z,26.87
2018-06-07T21:00:43.000Z,27.08
2018-06-07T21:10:42.000Z,26.74
2018-06-07T21:20:42.000Z,26.96
2018-06-07T21:30:42.000Z,26.98
2018-06-07T21:40:42.000Z,26.93
2018-06-07T21:50:42.000Z,26.87
2018-06-07T22:00:42.000Z,26.84
2018-06-07T22:10:43.000Z,26.83
2018-06-07T22:20:43.000Z,26.78
2018-06-07T22:30:43.000Z,26.73
2018-06-07T22:40:43.000Z,26.7
2018-06-07T22:50:43.000Z,26.67
2018-06-07T23:00:44.000Z,26.63
2018-06-07T23:10:43.000Z,26.65
2018-06-07T23:20:43.000Z,26.62
2018-06-07T23:30:43.000Z,26.44
2018-06-07T23:40:43.000Z,26.55
2018-06-07T23:50:43.000Z,26.55
